sensor_id;sensor_type;location;lat;lon;timestamp;P1;durP1;ratioP1;P2;durP2;ratioP2
5730;SDS011;2890;51.950;7.668;2024-02-04T00:01:46;102.00;;;32.97;;
5730;SDS011;2890;51.950;7.668;2024-02-04T00:04:14;89.63;;;33.27;;
5730;SDS011;2890;51.950;7.668;2024-02-04T00:06:41;114.30;;;38.50;;
5730;SDS011;2890;51.950;7.668;2024-02-04T00:09:07;139.23;;;39.70;;
5730;SDS011;2890;51.950;7.668;2024-02-04T00:11:34;127.57;;;42.10;;
5730;SDS011;2890;51.950;7.668;2024-02-04T00:14:01;123.73;;;40.60;;
5730;SDS011;2890;51.950;7.668;2024-02-04T00:16:27;125.90;;;40.13;;
5730;SDS011;2890;51.950;7.668;2024-02-04T00:18:54;112.00;;;38.60;;
5730;SDS011;2890;51.950;7.668;2024-02-04T00:21:22;125.47;;;40.50;;
5730;SDS011;2890;51.950;7.668;2024-02-04T00:23:48;112.23;;;39.23;;
5730;SDS011;2890;51.950;7.668;2024-02-04T00:26:15;117.63;;;38.93;;
5730;SDS011;2890;51.950;7.668;2024-02-04T00:28:41;110.67;;;38.90;;
5730;SDS011;2890;51.950;7.668;2024-02-04T00:31:08;119.23;;;40.17;;
5730;SDS011;2890;51.950;7.668;2024-02-04T00:33:34;117.93;;;39.50;;
5730;SDS011;2890;51.950;7.668;2024-02-04T00:36:01;117.60;;;38.37;;
5730;SDS011;2890;51.950;7.668;2024-02-04T00:38:29;112.40;;;37.60;;
5730;SDS011;2890;51.950;7.668;2024-02-04T00:40:55;103.63;;;36.10;;
5730;SDS011;2890;51.950;7.668;2024-02-04T00:43:22;93.70;;;34.57;;
5730;SDS011;2890;51.950;7.668;2024-02-04T00:45:48;106.43;;;34.40;;
5730;SDS011;2890;51.950;7.668;2024-02-04T00:48:14;111.47;;;36.80;;
5730;SDS011;2890;51.950;7.668;2024-02-04T00:50:41;95.60;;;35.07;;
5730;SDS011;2890;51.950;7.668;2024-02-04T00:53:07;80.50;;;31.20;;
5730;SDS011;2890;51.950;7.668;2024-02-04T00:55:35;98.90;;;33.03;;
5730;SDS011;2890;51.950;7.668;2024-02-04T00:58:02;93.50;;;33.70;;
5730;SDS011;2890;51.950;7.668;2024-02-04T01:00:28;97.17;;;32.80;;
5730;SDS011;2890;51.950;7.668;2024-02-04T01:02:55;94.87;;;32.87;;
5730;SDS011;2890;51.950;7.668;2024-02-04T01:05:21;83.70;;;31.90;;
5730;SDS011;2890;51.950;7.668;2024-02-04T01:07:48;88.67;;;31.63;;
5730;SDS011;2890;51.950;7.668;2024-02-04T01:10:14;84.37;;;31.27;;
5730;SDS011;2890;51.950;7.668;2024-02-04T01:12:42;72.87;;;30.50;;
5730;SDS011;2890;51.950;7.668;2024-02-04T01:15:09;83.20;;;28.93;;
5730;SDS011;2890;51.950;7.668;2024-02-04T01:17:35;70.23;;;28.70;;
5730;SDS011;2890;51.950;7.668;2024-02-04T01:20:02;71.87;;;28.57;;
5730;SDS011;2890;51.950;7.668;2024-02-04T01:22:30;64.83;;;27.47;;
5730;SDS011;2890;51.950;7.668;2024-02-04T01:25:00;72.00;;;27.77;;
5730;SDS011;2890;51.950;7.668;2024-02-04T01:27:26;77.20;;;28.07;;
5730;SDS011;2890;51.950;7.668;2024-02-04T01:29:54;74.67;;;27.60;;
5730;SDS011;2890;51.950;7.668;2024-02-04T01:32:21;63.30;;;25.77;;
5730;SDS011;2890;51.950;7.668;2024-02-04T01:34:48;60.57;;;24.80;;
5730;SDS011;2890;51.950;7.668;2024-02-04T01:37:14;56.60;;;24.43;;
5730;SDS011;2890;51.950;7.668;2024-02-04T01:39:41;50.00;;;20.90;;
5730;SDS011;2890;51.950;7.668;2024-02-04T01:42:07;40.43;;;19.23;;
5730;SDS011;2890;51.950;7.668;2024-02-04T01:44:33;41.37;;;19.93;;
5730;SDS011;2890;51.950;7.668;2024-02-04T01:47:01;46.20;;;20.40;;
5730;SDS011;2890;51.950;7.668;2024-02-04T01:49:28;48.40;;;19.03;;
5730;SDS011;2890;51.950;7.668;2024-02-04T01:51:55;42.57;;;17.83;;
5730;SDS011;2890;51.950;7.668;2024-02-04T01:54:22;37.77;;;16.33;;
5730;SDS011;2890;51.950;7.668;2024-02-04T01:56:50;33.40;;;16.70;;
5730;SDS011;2890;51.950;7.668;2024-02-04T01:59:18;35.10;;;14.43;;
5730;SDS011;2890;51.950;7.668;2024-02-04T02:01:45;25.97;;;13.00;;
5730;SDS011;2890;51.950;7.668;2024-02-04T02:04:13;24.23;;;12.50;;
5730;SDS011;2890;51.950;7.668;2024-02-04T02:06:40;21.90;;;11.73;;
5730;SDS011;2890;51.950;7.668;2024-02-04T02:09:08;22.90;;;11.60;;
5730;SDS011;2890;51.950;7.668;2024-02-04T02:11:37;22.23;;;12.07;;
5730;SDS011;2890;51.950;7.668;2024-02-04T02:14:08;22.67;;;10.70;;
5730;SDS011;2890;51.950;7.668;2024-02-04T02:16:37;21.63;;;11.00;;
5730;SDS011;2890;51.950;7.668;2024-02-04T02:19:06;22.73;;;11.10;;
5730;SDS011;2890;51.950;7.668;2024-02-04T02:21:44;16.80;;;9.70;;
5730;SDS011;2890;51.950;7.668;2024-02-04T02:26:54;14.30;;;9.23;;
5730;SDS011;2890;51.950;7.668;2024-02-04T02:29:23;14.77;;;8.80;;
5730;SDS011;2890;51.950;7.668;2024-02-04T02:31:49;12.77;;;8.23;;
5730;SDS011;2890;51.950;7.668;2024-02-04T02:34:16;9.90;;;7.63;;
5730;SDS011;2890;51.950;7.668;2024-02-04T02:36:43;11.30;;;7.77;;
5730;SDS011;2890;51.950;7.668;2024-02-04T02:39:13;11.00;;;7.00;;
5730;SDS011;2890;51.950;7.668;2024-02-04T02:41:43;15.73;;;8.67;;
5730;SDS011;2890;51.950;7.668;2024-02-04T02:44:10;10.90;;;7.77;;
5730;SDS011;2890;51.950;7.668;2024-02-04T02:46:37;16.60;;;8.37;;
5730;SDS011;2890;51.950;7.668;2024-02-04T02:49:04;14.77;;;8.23;;
5730;SDS011;2890;51.950;7.668;2024-02-04T02:51:31;11.10;;;7.90;;
5730;SDS011;2890;51.950;7.668;2024-02-04T02:53:57;11.57;;;7.90;;
5730;SDS011;2890;51.950;7.668;2024-02-04T02:56:23;12.60;;;7.63;;
5730;SDS011;2890;51.950;7.668;2024-02-04T02:58:51;10.50;;;7.90;;
5730;SDS011;2890;51.950;7.668;2024-02-04T03:01:18;13.90;;;7.43;;
5730;SDS011;2890;51.950;7.668;2024-02-04T03:03:44;11.87;;;7.20;;
5730;SDS011;2890;51.950;7.668;2024-02-04T03:06:10;8.80;;;6.97;;
5730;SDS011;2890;51.950;7.668;2024-02-04T03:08:37;10.17;;;7.30;;
5730;SDS011;2890;51.950;7.668;2024-02-04T03:11:03;12.80;;;7.20;;
5730;SDS011;2890;51.950;7.668;2024-02-04T03:13:30;8.80;;;6.43;;
5730;SDS011;2890;51.950;7.668;2024-02-04T03:15:58;8.00;;;7.00;;
5730;SDS011;2890;51.950;7.668;2024-02-04T03:18:24;11.80;;;7.20;;
5730;SDS011;2890;51.950;7.668;2024-02-04T03:20:51;9.07;;;6.80;;
5730;SDS011;2890;51.950;7.668;2024-02-04T03:23:18;11.17;;;6.33;;
5730;SDS011;2890;51.950;7.668;2024-02-04T03:25:44;11.20;;;6.40;;
5730;SDS011;2890;51.950;7.668;2024-02-04T03:28:11;6.70;;;5.00;;
5730;SDS011;2890;51.950;7.668;2024-02-04T03:30:37;6.27;;;5.50;;
5730;SDS011;2890;51.950;7.668;2024-02-04T03:33:05;7.30;;;6.13;;
5730;SDS011;2890;51.950;7.668;2024-02-04T03:35:31;6.13;;;5.63;;
5730;SDS011;2890;51.950;7.668;2024-02-04T03:38:01;7.13;;;5.57;;
5730;SDS011;2890;51.950;7.668;2024-02-04T03:40:27;6.30;;;5.70;;
5730;SDS011;2890;51.950;7.668;2024-02-04T03:42:54;7.30;;;6.60;;
5730;SDS011;2890;51.950;7.668;2024-02-04T03:45:20;8.50;;;7.40;;
5730;SDS011;2890;51.950;7.668;2024-02-04T03:47:47;11.93;;;6.70;;
5730;SDS011;2890;51.950;7.668;2024-02-04T03:50:15;8.40;;;6.70;;
5730;SDS011;2890;51.950;7.668;2024-02-04T03:52:41;8.93;;;7.67;;
5730;SDS011;2890;51.950;7.668;2024-02-04T03:55:08;9.23;;;7.17;;
5730;SDS011;2890;51.950;7.668;2024-02-04T03:57:34;18.00;;;7.53;;
5730;SDS011;2890;51.950;7.668;2024-02-04T04:00:01;10.73;;;7.87;;
5730;SDS011;2890;51.950;7.668;2024-02-04T04:02:28;8.63;;;7.00;;
5730;SDS011;2890;51.950;7.668;2024-02-04T04:04:54;10.03;;;7.47;;
5730;SDS011;2890;51.950;7.668;2024-02-04T04:07:22;9.67;;;7.00;;
5730;SDS011;2890;51.950;7.668;2024-02-04T04:09:48;9.57;;;7.60;;
5730;SDS011;2890;51.950;7.668;2024-02-04T04:12:15;9.13;;;7.43;;
5730;SDS011;2890;51.950;7.668;2024-02-04T04:14:41;8.20;;;6.47;;
5730;SDS011;2890;51.950;7.668;2024-02-04T04:17:08;9.83;;;7.20;;
5730;SDS011;2890;51.950;7.668;2024-02-04T04:19:34;9.80;;;7.77;;
5730;SDS011;2890;51.950;7.668;2024-02-04T04:22:01;12.07;;;9.40;;
5730;SDS011;2890;51.950;7.668;2024-02-04T04:24:29;12.37;;;8.93;;
5730;SDS011;2890;51.950;7.668;2024-02-04T04:26:56;14.80;;;10.07;;
5730;SDS011;2890;51.950;7.668;2024-02-04T04:29:22;15.27;;;9.70;;
5730;SDS011;2890;51.950;7.668;2024-02-04T04:31:49;15.63;;;10.47;;
5730;SDS011;2890;51.950;7.668;2024-02-04T04:34:16;15.80;;;10.77;;
5730;SDS011;2890;51.950;7.668;2024-02-04T04:36:44;18.27;;;11.63;;
5730;SDS011;2890;51.950;7.668;2024-02-04T04:39:11;21.07;;;12.37;;
5730;SDS011;2890;51.950;7.668;2024-02-04T04:41:39;23.13;;;11.70;;
5730;SDS011;2890;51.950;7.668;2024-02-04T04:44:05;22.40;;;11.60;;
5730;SDS011;2890;51.950;7.668;2024-02-04T04:46:32;25.47;;;11.80;;
5730;SDS011;2890;51.950;7.668;2024-02-04T04:48:58;17.60;;;12.60;;
5730;SDS011;2890;51.950;7.668;2024-02-04T04:51:25;22.67;;;11.83;;
5730;SDS011;2890;51.950;7.668;2024-02-04T04:53:52;15.57;;;11.83;;
5730;SDS011;2890;51.950;7.668;2024-02-04T04:56:19;21.40;;;11.53;;
5730;SDS011;2890;51.950;7.668;2024-02-04T04:58:46;19.23;;;10.53;;
5730;SDS011;2890;51.950;7.668;2024-02-04T05:01:13;16.00;;;10.30;;
5730;SDS011;2890;51.950;7.668;2024-02-04T05:03:39;18.17;;;9.87;;
5730;SDS011;2890;51.950;7.668;2024-02-04T05:06:06;13.20;;;9.13;;
5730;SDS011;2890;51.950;7.668;2024-02-04T05:08:32;14.03;;;8.70;;
5730;SDS011;2890;51.950;7.668;2024-02-04T05:10:59;12.73;;;8.47;;
5730;SDS011;2890;51.950;7.668;2024-02-04T05:13:25;12.30;;;8.40;;
5730;SDS011;2890;51.950;7.668;2024-02-04T05:15:53;9.10;;;8.20;;
5730;SDS011;2890;51.950;7.668;2024-02-04T05:18:19;14.70;;;9.10;;
5730;SDS011;2890;51.950;7.668;2024-02-04T05:20:46;18.27;;;10.63;;
5730;SDS011;2890;51.950;7.668;2024-02-04T05:23:13;13.90;;;9.27;;
5730;SDS011;2890;51.950;7.668;2024-02-04T05:25:40;19.63;;;10.30;;
5730;SDS011;2890;51.950;7.668;2024-02-04T05:28:06;16.63;;;11.20;;
5730;SDS011;2890;51.950;7.668;2024-02-04T05:30:33;19.90;;;11.27;;
5730;SDS011;2890;51.950;7.668;2024-02-04T05:33:00;17.37;;;12.10;;
5730;SDS011;2890;51.950;7.668;2024-02-04T05:35:27;22.23;;;12.60;;
5730;SDS011;2890;51.950;7.668;2024-02-04T05:37:53;19.53;;;12.83;;
5730;SDS011;2890;51.950;7.668;2024-02-04T05:40:20;22.20;;;12.33;;
5730;SDS011;2890;51.950;7.668;2024-02-04T05:42:46;26.43;;;14.03;;
5730;SDS011;2890;51.950;7.668;2024-02-04T05:45:13;22.73;;;14.90;;
5730;SDS011;2890;51.950;7.668;2024-02-04T05:47:39;21.10;;;15.03;;
5730;SDS011;2890;51.950;7.668;2024-02-04T05:50:08;25.20;;;14.80;;
5730;SDS011;2890;51.950;7.668;2024-02-04T05:52:34;25.30;;;15.03;;
5730;SDS011;2890;51.950;7.668;2024-02-04T05:55:01;24.97;;;15.33;;
5730;SDS011;2890;51.950;7.668;2024-02-04T05:57:27;24.23;;;14.50;;
5730;SDS011;2890;51.950;7.668;2024-02-04T05:59:54;20.67;;;14.03;;
5730;SDS011;2890;51.950;7.668;2024-02-04T06:02:20;28.40;;;15.40;;
5730;SDS011;2890;51.950;7.668;2024-02-04T06:04:47;19.57;;;14.17;;
5730;SDS011;2890;51.950;7.668;2024-02-04T06:07:15;24.73;;;14.50;;
5730;SDS011;2890;51.950;7.668;2024-02-04T06:09:42;21.97;;;15.00;;
5730;SDS011;2890;51.950;7.668;2024-02-04T06:12:08;24.83;;;15.10;;
5730;SDS011;2890;51.950;7.668;2024-02-04T06:14:35;28.33;;;15.70;;
5730;SDS011;2890;51.950;7.668;2024-02-04T06:17:04;29.90;;;16.87;;
5730;SDS011;2890;51.950;7.668;2024-02-04T06:19:33;28.97;;;15.53;;
5730;SDS011;2890;51.950;7.668;2024-02-04T06:21:59;27.10;;;16.17;;
5730;SDS011;2890;51.950;7.668;2024-02-04T06:24:27;27.93;;;17.30;;
5730;SDS011;2890;51.950;7.668;2024-02-04T06:26:54;28.83;;;16.83;;
5730;SDS011;2890;51.950;7.668;2024-02-04T06:29:20;28.67;;;16.93;;
5730;SDS011;2890;51.950;7.668;2024-02-04T06:31:47;33.33;;;18.30;;
5730;SDS011;2890;51.950;7.668;2024-02-04T06:34:13;33.73;;;18.80;;
5730;SDS011;2890;51.950;7.668;2024-02-04T06:36:41;28.53;;;17.30;;
5730;SDS011;2890;51.950;7.668;2024-02-04T06:39:08;29.13;;;18.00;;
5730;SDS011;2890;51.950;7.668;2024-02-04T06:41:36;27.23;;;16.60;;
5730;SDS011;2890;51.950;7.668;2024-02-04T06:44:02;26.90;;;16.63;;
5730;SDS011;2890;51.950;7.668;2024-02-04T06:46:29;29.57;;;16.60;;
5730;SDS011;2890;51.950;7.668;2024-02-04T06:48:55;29.07;;;17.40;;
5730;SDS011;2890;51.950;7.668;2024-02-04T06:51:22;31.90;;;18.70;;
5730;SDS011;2890;51.950;7.668;2024-02-04T06:53:48;32.30;;;16.60;;
5730;SDS011;2890;51.950;7.668;2024-02-04T06:56:15;34.87;;;17.77;;
5730;SDS011;2890;51.950;7.668;2024-02-04T06:58:43;37.90;;;17.30;;
5730;SDS011;2890;51.950;7.668;2024-02-04T07:01:09;43.53;;;16.83;;
5730;SDS011;2890;51.950;7.668;2024-02-04T07:03:37;40.60;;;18.27;;
5730;SDS011;2890;51.950;7.668;2024-02-04T07:06:03;30.07;;;16.97;;
5730;SDS011;2890;51.950;7.668;2024-02-04T07:08:30;26.63;;;15.53;;
5730;SDS011;2890;51.950;7.668;2024-02-04T07:10:56;35.10;;;15.73;;
5730;SDS011;2890;51.950;7.668;2024-02-04T07:13:23;29.83;;;14.83;;
5730;SDS011;2890;51.950;7.668;2024-02-04T07:15:50;24.30;;;14.43;;
5730;SDS011;2890;51.950;7.668;2024-02-04T07:18:17;24.53;;;14.17;;
5730;SDS011;2890;51.950;7.668;2024-02-04T07:20:46;21.97;;;12.27;;
5730;SDS011;2890;51.950;7.668;2024-02-04T07:23:13;18.27;;;10.87;;
5730;SDS011;2890;51.950;7.668;2024-02-04T07:25:39;25.70;;;11.90;;
5730;SDS011;2890;51.950;7.668;2024-02-04T07:28:06;16.83;;;10.70;;
5730;SDS011;2890;51.950;7.668;2024-02-04T07:30:32;16.03;;;10.23;;
5730;SDS011;2890;51.950;7.668;2024-02-04T07:33:00;17.63;;;11.03;;
5730;SDS011;2890;51.950;7.668;2024-02-04T07:35:27;15.47;;;9.00;;
5730;SDS011;2890;51.950;7.668;2024-02-04T07:37:53;12.83;;;8.63;;
5730;SDS011;2890;51.950;7.668;2024-02-04T07:40:19;15.73;;;9.07;;
5730;SDS011;2890;51.950;7.668;2024-02-04T07:42:46;20.67;;;9.87;;
5730;SDS011;2890;51.950;7.668;2024-02-04T07:45:12;20.57;;;9.27;;
5730;SDS011;2890;51.950;7.668;2024-02-04T07:47:39;13.20;;;9.20;;
5730;SDS011;2890;51.950;7.668;2024-02-04T07:50:07;13.97;;;9.60;;
5730;SDS011;2890;51.950;7.668;2024-02-04T07:52:34;12.60;;;8.07;;
5730;SDS011;2890;51.950;7.668;2024-02-04T07:55:01;14.00;;;8.60;;
5730;SDS011;2890;51.950;7.668;2024-02-04T07:57:27;14.67;;;7.50;;
5730;SDS011;2890;51.950;7.668;2024-02-04T07:59:54;15.57;;;7.70;;
5730;SDS011;2890;51.950;7.668;2024-02-04T08:02:21;13.70;;;7.53;;
5730;SDS011;2890;51.950;7.668;2024-02-04T08:04:47;10.53;;;8.20;;
5730;SDS011;2890;51.950;7.668;2024-02-04T08:07:15;10.87;;;7.33;;
5730;SDS011;2890;51.950;7.668;2024-02-04T08:09:42;14.23;;;8.00;;
5730;SDS011;2890;51.950;7.668;2024-02-04T08:12:09;16.13;;;7.07;;
5730;SDS011;2890;51.950;7.668;2024-02-04T08:14:35;12.30;;;7.73;;
5730;SDS011;2890;51.950;7.668;2024-02-04T08:17:02;15.97;;;8.40;;
5730;SDS011;2890;51.950;7.668;2024-02-04T08:19:28;16.17;;;8.40;;
5730;SDS011;2890;51.950;7.668;2024-02-04T08:21:55;21.70;;;8.07;;
5730;SDS011;2890;51.950;7.668;2024-02-04T08:24:23;14.03;;;8.70;;
5730;SDS011;2890;51.950;7.668;2024-02-04T08:26:49;16.53;;;9.07;;
5730;SDS011;2890;51.950;7.668;2024-02-04T08:29:15;17.07;;;9.17;;
5730;SDS011;2890;51.950;7.668;2024-02-04T08:31:42;15.70;;;9.00;;
5730;SDS011;2890;51.950;7.668;2024-02-04T08:34:08;15.73;;;8.80;;
5730;SDS011;2890;51.950;7.668;2024-02-04T08:36:35;18.33;;;9.00;;
5730;SDS011;2890;51.950;7.668;2024-02-04T08:39:02;14.47;;;8.90;;
5730;SDS011;2890;51.950;7.668;2024-02-04T08:41:30;9.13;;;7.73;;
5730;SDS011;2890;51.950;7.668;2024-02-04T08:43:57;15.03;;;8.03;;
5730;SDS011;2890;51.950;7.668;2024-02-04T08:46:23;8.40;;;7.50;;
5730;SDS011;2890;51.950;7.668;2024-02-04T08:48:50;10.10;;;7.20;;
5730;SDS011;2890;51.950;7.668;2024-02-04T08:51:16;11.53;;;7.30;;
5730;SDS011;2890;51.950;7.668;2024-02-04T08:53:44;12.90;;;7.00;;
5730;SDS011;2890;51.950;7.668;2024-02-04T08:56:10;9.20;;;6.73;;
5730;SDS011;2890;51.950;7.668;2024-02-04T08:58:38;10.90;;;7.37;;
5730;SDS011;2890;51.950;7.668;2024-02-04T09:01:05;14.60;;;6.77;;
5730;SDS011;2890;51.950;7.668;2024-02-04T09:03:31;16.70;;;7.60;;
5730;SDS011;2890;51.950;7.668;2024-02-04T09:05:58;14.20;;;7.03;;
5730;SDS011;2890;51.950;7.668;2024-02-04T09:08:25;11.60;;;7.10;;
5730;SDS011;2890;51.950;7.668;2024-02-04T09:10:51;11.90;;;6.60;;
5730;SDS011;2890;51.950;7.668;2024-02-04T09:13:18;13.30;;;6.40;;
5730;SDS011;2890;51.950;7.668;2024-02-04T09:15:46;15.27;;;7.60;;
5730;SDS011;2890;51.950;7.668;2024-02-04T09:18:12;12.47;;;7.07;;
5730;SDS011;2890;51.950;7.668;2024-02-04T09:20:39;10.80;;;5.80;;
5730;SDS011;2890;51.950;7.668;2024-02-04T09:23:05;8.37;;;6.40;;
5730;SDS011;2890;51.950;7.668;2024-02-04T09:25:32;12.03;;;5.83;;
5730;SDS011;2890;51.950;7.668;2024-02-04T09:27:59;10.43;;;6.43;;
5730;SDS011;2890;51.950;7.668;2024-02-04T09:30:25;8.67;;;4.87;;
5730;SDS011;2890;51.950;7.668;2024-02-04T09:32:53;9.40;;;5.30;;
5730;SDS011;2890;51.950;7.668;2024-02-04T09:35:19;9.30;;;5.23;;
5730;SDS011;2890;51.950;7.668;2024-02-04T09:37:46;10.30;;;6.00;;
5730;SDS011;2890;51.950;7.668;2024-02-04T09:40:13;6.47;;;4.70;;
5730;SDS011;2890;51.950;7.668;2024-02-04T09:42:40;6.47;;;4.50;;
5730;SDS011;2890;51.950;7.668;2024-02-04T09:45:06;9.90;;;5.60;;
5730;SDS011;2890;51.950;7.668;2024-02-04T09:47:34;8.33;;;5.13;;
5730;SDS011;2890;51.950;7.668;2024-02-04T09:50:02;7.93;;;5.20;;
5730;SDS011;2890;51.950;7.668;2024-02-04T09:52:29;8.30;;;6.20;;
5730;SDS011;2890;51.950;7.668;2024-02-04T09:54:57;7.00;;;5.63;;
5730;SDS011;2890;51.950;7.668;2024-02-04T09:57:25;11.53;;;6.13;;
5730;SDS011;2890;51.950;7.668;2024-02-04T09:59:52;8.90;;;5.73;;
5730;SDS011;2890;51.950;7.668;2024-02-04T10:02:18;6.73;;;6.10;;
5730;SDS011;2890;51.950;7.668;2024-02-04T10:04:46;9.83;;;6.47;;
5730;SDS011;2890;51.950;7.668;2024-02-04T10:07:14;7.17;;;5.73;;
5730;SDS011;2890;51.950;7.668;2024-02-04T10:09:42;15.33;;;6.70;;
5730;SDS011;2890;51.950;7.668;2024-02-04T10:12:08;7.80;;;5.60;;
5730;SDS011;2890;51.950;7.668;2024-02-04T10:14:35;7.90;;;6.43;;
5730;SDS011;2890;51.950;7.668;2024-02-04T10:17:02;9.10;;;6.30;;
5730;SDS011;2890;51.950;7.668;2024-02-04T10:19:30;7.67;;;6.57;;
5730;SDS011;2890;51.950;7.668;2024-02-04T10:21:59;8.57;;;6.70;;
5730;SDS011;2890;51.950;7.668;2024-02-04T10:24:27;9.83;;;7.90;;
5730;SDS011;2890;51.950;7.668;2024-02-04T10:26:54;8.80;;;7.73;;
5730;SDS011;2890;51.950;7.668;2024-02-04T10:29:21;9.37;;;8.20;;
5730;SDS011;2890;51.950;7.668;2024-02-04T10:31:47;13.53;;;8.53;;
5730;SDS011;2890;51.950;7.668;2024-02-04T10:34:14;10.17;;;8.27;;
5730;SDS011;2890;51.950;7.668;2024-02-04T10:36:40;9.33;;;8.20;;
5730;SDS011;2890;51.950;7.668;2024-02-04T10:39:07;10.90;;;8.50;;
5730;SDS011;2890;51.950;7.668;2024-02-04T10:41:34;10.90;;;8.60;;
5730;SDS011;2890;51.950;7.668;2024-02-04T10:44:05;10.63;;;8.80;;
5730;SDS011;2890;51.950;7.668;2024-02-04T10:46:32;10.20;;;8.10;;
5730;SDS011;2890;51.950;7.668;2024-02-04T10:49:00;8.73;;;7.90;;
5730;SDS011;2890;51.950;7.668;2024-02-04T10:51:27;11.90;;;8.70;;
5730;SDS011;2890;51.950;7.668;2024-02-04T10:53:53;10.67;;;7.43;;
5730;SDS011;2890;51.950;7.668;2024-02-04T10:56:21;10.87;;;7.90;;
5730;SDS011;2890;51.950;7.668;2024-02-04T10:58:51;10.83;;;7.50;;
5730;SDS011;2890;51.950;7.668;2024-02-04T11:01:18;13.00;;;8.53;;
5730;SDS011;2890;51.950;7.668;2024-02-04T11:03:45;9.10;;;7.70;;
5730;SDS011;2890;51.950;7.668;2024-02-04T11:06:12;9.47;;;7.40;;
5730;SDS011;2890;51.950;7.668;2024-02-04T11:08:38;7.97;;;7.17;;
5730;SDS011;2890;51.950;7.668;2024-02-04T11:11:05;13.73;;;7.90;;
5730;SDS011;2890;51.950;7.668;2024-02-04T11:13:31;8.40;;;7.60;;
5730;SDS011;2890;51.950;7.668;2024-02-04T11:16:01;11.43;;;8.17;;
5730;SDS011;2890;51.950;7.668;2024-02-04T11:18:37;9.57;;;7.70;;
5730;SDS011;2890;51.950;7.668;2024-02-04T11:21:18;8.87;;;7.90;;
5730;SDS011;2890;51.950;7.668;2024-02-04T11:23:58;10.03;;;8.00;;
5730;SDS011;2890;51.950;7.668;2024-02-04T11:26:33;10.87;;;8.83;;
5730;SDS011;2890;51.950;7.668;2024-02-04T11:29:00;12.93;;;9.37;;
5730;SDS011;2890;51.950;7.668;2024-02-04T11:31:29;10.40;;;7.50;;
5730;SDS011;2890;51.950;7.668;2024-02-04T11:33:56;8.77;;;7.50;;
5730;SDS011;2890;51.950;7.668;2024-02-04T11:36:24;11.03;;;7.10;;
5730;SDS011;2890;51.950;7.668;2024-02-04T11:38:50;8.20;;;7.40;;
5730;SDS011;2890;51.950;7.668;2024-02-04T11:41:21;10.90;;;7.40;;
5730;SDS011;2890;51.950;7.668;2024-02-04T11:43:51;9.87;;;7.87;;
5730;SDS011;2890;51.950;7.668;2024-02-04T11:46:18;7.97;;;7.37;;
5730;SDS011;2890;51.950;7.668;2024-02-04T11:48:51;7.80;;;7.10;;
5730;SDS011;2890;51.950;7.668;2024-02-04T11:51:18;7.33;;;6.47;;
5730;SDS011;2890;51.950;7.668;2024-02-04T11:53:44;7.93;;;6.93;;
5730;SDS011;2890;51.950;7.668;2024-02-04T11:56:11;8.87;;;6.93;;
5730;SDS011;2890;51.950;7.668;2024-02-04T11:58:38;6.70;;;6.10;;
5730;SDS011;2890;51.950;7.668;2024-02-04T12:01:05;11.17;;;6.87;;
5730;SDS011;2890;51.950;7.668;2024-02-04T12:03:36;7.50;;;6.20;;
5730;SDS011;2890;51.950;7.668;2024-02-04T12:06:04;6.63;;;6.13;;
5730;SDS011;2890;51.950;7.668;2024-02-04T12:08:32;8.00;;;7.30;;
5730;SDS011;2890;51.950;7.668;2024-02-04T12:10:59;8.33;;;5.70;;
5730;SDS011;2890;51.950;7.668;2024-02-04T12:13:26;6.97;;;6.47;;
5730;SDS011;2890;51.950;7.668;2024-02-04T12:15:54;9.47;;;6.07;;
5730;SDS011;2890;51.950;7.668;2024-02-04T12:18:20;7.23;;;6.03;;
5730;SDS011;2890;51.950;7.668;2024-02-04T12:20:47;5.80;;;5.40;;
5730;SDS011;2890;51.950;7.668;2024-02-04T12:23:17;6.93;;;6.40;;
5730;SDS011;2890;51.950;7.668;2024-02-04T12:25:44;6.80;;;5.67;;
5730;SDS011;2890;51.950;7.668;2024-02-04T12:28:11;9.03;;;5.40;;
5730;SDS011;2890;51.950;7.668;2024-02-04T12:30:40;9.50;;;6.10;;
5730;SDS011;2890;51.950;7.668;2024-02-04T12:33:06;10.30;;;5.63;;
5730;SDS011;2890;51.950;7.668;2024-02-04T12:35:33;6.37;;;5.97;;
5730;SDS011;2890;51.950;7.668;2024-02-04T12:38:00;9.83;;;6.80;;
5730;SDS011;2890;51.950;7.668;2024-02-04T12:40:29;8.13;;;7.47;;
5730;SDS011;2890;51.950;7.668;2024-02-04T12:42:56;10.53;;;7.20;;
5730;SDS011;2890;51.950;7.668;2024-02-04T12:45:24;8.03;;;7.23;;
5730;SDS011;2890;51.950;7.668;2024-02-04T12:47:51;7.63;;;6.83;;
5730;SDS011;2890;51.950;7.668;2024-02-04T12:50:19;7.47;;;6.43;;
5730;SDS011;2890;51.950;7.668;2024-02-04T12:52:45;6.60;;;6.10;;
5730;SDS011;2890;51.950;7.668;2024-02-04T12:55:19;6.83;;;6.23;;
5730;SDS011;2890;51.950;7.668;2024-02-04T12:57:48;7.20;;;6.60;;
5730;SDS011;2890;51.950;7.668;2024-02-04T13:00:17;12.40;;;6.67;;
5730;SDS011;2890;51.950;7.668;2024-02-04T13:02:44;8.90;;;6.70;;
5730;SDS011;2890;51.950;7.668;2024-02-04T13:05:10;7.20;;;5.90;;
5730;SDS011;2890;51.950;7.668;2024-02-04T13:07:50;6.93;;;5.17;;
5730;SDS011;2890;51.950;7.668;2024-02-04T13:10:21;6.93;;;6.20;;
5730;SDS011;2890;51.950;7.668;2024-02-04T13:12:58;5.67;;;5.07;;
5730;SDS011;2890;51.950;7.668;2024-02-04T13:15:29;4.93;;;4.63;;
5730;SDS011;2890;51.950;7.668;2024-02-04T13:17:56;7.33;;;4.07;;
5730;SDS011;2890;51.950;7.668;2024-02-04T13:20:24;4.00;;;3.70;;
5730;SDS011;2890;51.950;7.668;2024-02-04T13:22:50;3.83;;;3.03;;
5730;SDS011;2890;51.950;7.668;2024-02-04T13:25:18;3.50;;;3.00;;
5730;SDS011;2890;51.950;7.668;2024-02-04T13:27:45;3.90;;;3.23;;
5730;SDS011;2890;51.950;7.668;2024-02-04T13:30:13;3.80;;;3.00;;
5730;SDS011;2890;51.950;7.668;2024-02-04T13:32:39;3.20;;;3.00;;
5730;SDS011;2890;51.950;7.668;2024-02-04T13:35:07;5.03;;;2.80;;
5730;SDS011;2890;51.950;7.668;2024-02-04T13:37:34;2.70;;;2.50;;
5730;SDS011;2890;51.950;7.668;2024-02-04T13:40:01;2.73;;;2.50;;
5730;SDS011;2890;51.950;7.668;2024-02-04T13:42:28;2.77;;;2.57;;
5730;SDS011;2890;51.950;7.668;2024-02-04T13:44:54;3.33;;;2.50;;
5730;SDS011;2890;51.950;7.668;2024-02-04T13:47:22;6.90;;;2.80;;
5730;SDS011;2890;51.950;7.668;2024-02-04T13:49:49;2.60;;;2.40;;
5730;SDS011;2890;51.950;7.668;2024-02-04T13:52:15;2.13;;;1.93;;
5730;SDS011;2890;51.950;7.668;2024-02-04T13:54:42;3.00;;;2.80;;
5730;SDS011;2890;51.950;7.668;2024-02-04T13:57:08;2.53;;;2.30;;
5730;SDS011;2890;51.950;7.668;2024-02-04T13:59:36;4.03;;;2.87;;
5730;SDS011;2890;51.950;7.668;2024-02-04T14:02:02;5.33;;;2.53;;
5730;SDS011;2890;51.950;7.668;2024-02-04T14:04:31;4.40;;;3.10;;
5730;SDS011;2890;51.950;7.668;2024-02-04T14:06:58;2.87;;;2.57;;
5730;SDS011;2890;51.950;7.668;2024-02-04T14:09:24;2.83;;;2.50;;
5730;SDS011;2890;51.950;7.668;2024-02-04T14:11:51;3.77;;;2.27;;
5730;SDS011;2890;51.950;7.668;2024-02-04T14:14:19;3.17;;;2.20;;
5730;SDS011;2890;51.950;7.668;2024-02-04T14:16:46;3.10;;;2.00;;
5730;SDS011;2890;51.950;7.668;2024-02-04T14:19:12;2.87;;;2.67;;
5730;SDS011;2890;51.950;7.668;2024-02-04T14:21:40;2.67;;;2.47;;
5730;SDS011;2890;51.950;7.668;2024-02-04T14:24:07;3.40;;;3.10;;
5730;SDS011;2890;51.950;7.668;2024-02-04T14:26:34;2.30;;;2.10;;
5730;SDS011;2890;51.950;7.668;2024-02-04T14:29:00;2.23;;;2.03;;
5730;SDS011;2890;51.950;7.668;2024-02-04T14:31:27;1.93;;;1.73;;
5730;SDS011;2890;51.950;7.668;2024-02-04T14:33:53;6.50;;;2.70;;
5730;SDS011;2890;51.950;7.668;2024-02-04T14:36:20;2.77;;;2.03;;
5730;SDS011;2890;51.950;7.668;2024-02-04T14:38:48;2.13;;;1.93;;
5730;SDS011;2890;51.950;7.668;2024-02-04T14:41:14;2.67;;;1.73;;
5730;SDS011;2890;51.950;7.668;2024-02-04T14:43:41;2.30;;;1.70;;
5730;SDS011;2890;51.950;7.668;2024-02-04T14:46:07;2.13;;;1.90;;
5730;SDS011;2890;51.950;7.668;2024-02-04T14:48:35;2.70;;;2.13;;
5730;SDS011;2890;51.950;7.668;2024-02-04T14:51:02;1.83;;;1.57;;
5730;SDS011;2890;51.950;7.668;2024-02-04T14:53:28;2.17;;;1.97;;
5730;SDS011;2890;51.950;7.668;2024-02-04T14:55:56;1.87;;;1.67;;
5730;SDS011;2890;51.950;7.668;2024-02-04T14:58:22;2.27;;;2.07;;
5730;SDS011;2890;51.950;7.668;2024-02-04T15:00:49;2.00;;;1.90;;
5730;SDS011;2890;51.950;7.668;2024-02-04T15:03:15;3.10;;;2.00;;